Time;durP1;ratioP1;P1;durP2;ratioP2;P2;SDS_P1;SDS_P2;PMS_P1;PMS_P2;Temp;Humidity;BMP_temperature;BMP_pressure;BME280_temperature;BME280_humidity;BME280_pressure;Samples;Min_cycle;Max_cycle;Signal;HPM_P1;HPM_P2
2021/11/30 00:02:17;;;;;;;0.15;0.15;;;;;;;-0.22;100.00;99897.66;5049398;28;20046;-85
2021/11/30 00:04:51;;;;;;;0.20;0.20;;;;;;;-0.12;100.00;99891.78;5044170;28;20053;-84
2021/11/30 00:07:19;;;;;;;0.20;0.20;;;;;;;-0.19;100.00;99878.50;5042399;28;20057;-84
2021/11/30 00:12:39;;;;;;;0.30;0.30;;;;;;;-0.23;100.00;99850.59;5039034;28;20394;-85
2021/11/30 00:15:13;;;;;;;0.20;0.20;;;;;;;-0.01;100.00;99874.94;5050328;28;20393;-85
2021/11/30 00:17:47;;;;;;;0.20;0.20;;;;;;;-0.10;100.00;99862.94;5043157;28;20738;-84
2021/11/30 00:20:20;;;;;;;0.20;0.20;;;;;;;0.01;100.00;99850.63;5046116;28;20605;-85
2021/11/30 00:22:48;;;;;;;0.20;0.20;;;;;;;0.00;100.00;99852.50;5039399;28;20044;-85
2021/11/30 00:25:17;;;;;;;0.20;0.20;;;;;;;-0.06;100.00;99840.03;5044876;28;20052;-85
2021/11/30 00:27:50;;;;;;;0.10;0.10;;;;;;;0.03;100.00;99843.19;5040200;28;20528;-84
2021/11/30 00:30:25;;;;;;;0.20;0.20;;;;;;;0.01;100.00;99837.25;5043978;28;20056;-85
2021/11/30 00:32:58;;;;;;;0.20;0.20;;;;;;;0.02;100.00;99826.31;5040427;28;20052;-84
2021/11/30 00:35:32;;;;;;;0.20;0.20;;;;;;;-0.01;100.00;99810.75;5052263;28;20049;-85
2021/11/30 00:38:00;;;;;;;0.20;0.20;;;;;;;0.11;100.00;99818.75;5045900;28;20406;-85
2021/11/30 00:40:29;;;;;;;0.20;0.20;;;;;;;0.11;100.00;99808.06;5035371;28;20064;-84
2021/11/30 00:42:59;;;;;;;0.20;0.20;;;;;;;0.06;100.00;99807.97;5039327;28;20041;-84
2021/11/30 00:45:37;;;;;;;0.20;0.20;;;;;;;0.04;100.00;99794.00;5050306;28;20049;-84
2021/11/30 00:48:08;;;;;;;0.20;0.20;;;;;;;0.06;100.00;99806.09;5048519;28;20401;-85
2021/11/30 00:50:43;;;;;;;0.20;0.20;;;;;;;0.20;100.00;99798.66;5047764;28;20045;-85
2021/11/30 00:53:11;;;;;;;0.20;0.20;;;;;;;0.20;100.00;99787.13;5045778;28;20424;-85
2021/11/30 00:55:39;;;;;;;0.30;0.30;;;;;;;0.15;100.00;99777.13;5044813;28;20045;-84
2021/11/30 00:58:13;;;;;;;0.20;0.20;;;;;;;0.11;100.00;99767.94;5042226;28;20054;-84
2021/11/30 01:00:47;;;;;;;0.20;0.20;;;;;;;0.25;100.00;99771.19;5037658;28;20371;-84
2021/11/30 01:03:20;;;;;;;0.20;0.20;;;;;;;0.27;100.00;99764.53;5047105;28;20056;-84
2021/11/30 01:05:49;;;;;;;0.20;0.20;;;;;;;0.22;100.00;99760.94;5038821;28;20052;-84
2021/11/30 01:08:17;;;;;;;0.20;0.20;;;;;;;0.13;100.00;99763.16;5043849;28;20052;-84
2021/11/30 01:10:51;;;;;;;0.15;0.15;;;;;;;0.14;100.00;99754.91;5035565;28;20041;-85
2021/11/30 01:13:19;;;;;;;0.30;0.30;;;;;;;0.14;100.00;99752.22;5043399;28;20501;-85
2021/11/30 01:15:54;;;;;;;0.20;0.20;;;;;;;0.08;100.00;99737.09;5045060;28;20389;-85
2021/11/30 01:18:23;;;;;;;0.20;0.20;;;;;;;0.16;100.00;99741.28;5037203;28;20049;-85
2021/11/30 01:20:56;;;;;;;0.20;0.20;;;;;;;0.14;100.00;99733.50;5042212;28;20050;-84
2021/11/30 01:23:30;;;;;;;0.20;0.20;;;;;;;0.22;100.00;99723.47;5037526;28;20056;-84
2021/11/30 01:26:04;;;;;;;0.20;0.20;;;;;;;0.07;100.00;99695.38;5038337;28;20401;-84
2021/11/30 01:28:32;;;;;;;0.20;0.20;;;;;;;0.09;100.00;99706.63;5041679;28;20049;-84
2021/11/30 01:31:07;;;;;;;0.20;0.20;;;;;;;0.11;100.00;99701.88;5043887;28;20053;-85
2021/11/30 01:33:40;;;;;;;0.22;0.22;;;;;;;0.03;100.00;99671.97;5045574;28;20056;-84
2021/11/30 01:36:08;;;;;;;0.20;0.20;;;;;;;0.02;100.00;99670.38;5042307;28;20048;-85
2021/11/30 01:38:37;;;;;;;0.20;0.20;;;;;;;0.24;100.00;99663.34;5039418;28;20044;-85
2021/11/30 01:41:12;;;;;;;0.20;0.20;;;;;;;0.16;100.00;99651.13;5037142;28;20048;-84
2021/11/30 01:43:42;;;;;;;0.20;0.20;;;;;;;0.14;100.00;99639.84;5049379;28;20045;-85
2021/11/30 01:46:24;;;;;;;0.20;0.20;;;;;;;0.20;100.00;99637.28;5043184;28;20046;-84
2021/11/30 01:49:15;;;;;;;0.28;0.28;;;;;;;0.31;100.00;99636.44;5044626;28;20048;-85
2021/11/30 01:51:48;;;;;;;0.20;0.20;;;;;;;0.42;100.00;99632.91;5036842;28;20049;-85
2021/11/30 01:54:16;;;;;;;0.20;0.20;;;;;;;0.52;100.00;99623.44;5046474;28;20049;-84
2021/11/30 01:56:45;;;;;;;0.20;0.20;;;;;;;0.45;100.00;99612.88;5047033;28;20045;-85
2021/11/30 01:59:18;;;;;;;0.20;0.20;;;;;;;0.49;100.00;99604.13;5044070;28;20056;-85
2021/11/30 02:01:53;;;;;;;0.20;0.20;;;;;;;0.47;100.00;99603.56;5042481;28;20417;-85
2021/11/30 02:04:21;;;;;;;0.20;0.20;;;;;;;0.54;100.00;99591.88;5045564;28;20046;-83
2021/11/30 02:06:50;;;;;;;0.30;0.30;;;;;;;0.48;100.00;99588.31;5049732;28;20049;-85
2021/11/30 02:09:18;;;;;;;0.20;0.20;;;;;;;0.48;100.00;99582.94;5049976;28;20049;-84
2021/11/30 02:11:46;;;;;;;0.20;0.20;;;;;;;0.55;100.00;99578.25;5039165;28;20056;-85
2021/11/30 02:14:14;;;;;;;0.20;0.20;;;;;;;0.55;100.00;99570.22;5046905;28;20100;-84
2021/11/30 02:16:44;;;;;;;0.30;0.30;;;;;;;0.59;100.00;99573.25;5041198;28;20505;-85
2021/11/30 02:19:19;;;;;;;0.22;0.22;;;;;;;0.65;100.00;99574.97;5051794;28;20064;-84
2021/11/30 02:21:54;;;;;;;0.20;0.20;;;;;;;0.73;100.00;99573.75;5041633;28;20064;-84
2021/11/30 02:24:22;;;;;;;0.20;0.20;;;;;;;0.73;100.00;99565.72;5059238;28;20053;-84
2021/11/30 02:26:55;;;;;;;0.20;0.20;;;;;;;0.75;100.00;99556.38;5043994;28;20049;-84
2021/11/30 02:29:28;;;;;;;0.30;0.30;;;;;;;0.77;100.00;99554.25;5041368;28;20048;-85
2021/11/30 02:31:57;;;;;;;0.30;0.30;;;;;;;0.76;100.00;99538.44;5044191;28;20081;-84
2021/11/30 02:34:25;;;;;;;0.20;0.20;;;;;;;0.86;100.00;99525.22;5044207;28;20521;-84
2021/11/30 02:37:05;;;;;;;0.20;0.20;;;;;;;0.87;100.00;99512.63;5036898;28;20049;-84
2021/11/30 02:39:39;;;;;;;0.20;0.20;;;;;;;0.85;100.00;99502.16;5043379;28;20049;-85
2021/11/30 02:42:12;;;;;;;0.20;0.20;;;;;;;0.93;100.00;99503.63;5045697;28;20056;-84
2021/11/30 02:44:45;;;;;;;0.30;0.30;;;;;;;0.91;100.00;99490.50;5045945;28;20048;-83
2021/11/30 02:47:18;;;;;;;0.20;0.20;;;;;;;0.95;100.00;99498.84;5048385;28;20417;-84
2021/11/30 02:49:52;;;;;;;0.20;0.20;;;;;;;0.81;100.00;99464.34;5039281;28;20045;-84
2021/11/30 02:52:22;;;;;;;0.20;0.20;;;;;;;1.01;100.00;99455.81;5045624;28;20053;-84
2021/11/30 02:54:53;;;;;;;0.20;0.20;;;;;;;0.85;100.00;99440.56;5046012;28;20071;-85
2021/11/30 02:57:26;;;;;;;0.20;0.20;;;;;;;0.95;100.00;99437.22;5045188;28;20053;-84
2021/11/30 03:00:00;;;;;;;0.30;0.30;;;;;;;0.94;100.00;99424.88;5047936;28;20045;-84
2021/11/30 03:02:35;;;;;;;0.10;0.10;;;;;;;0.95;100.00;99421.16;5046865;28;20060;-85
2021/11/30 03:05:05;;;;;;;0.20;0.20;;;;;;;0.96;100.00;99402.16;5059054;28;20060;-84
2021/11/30 03:07:40;;;;;;;0.30;0.30;;;;;;;0.98;100.00;99418.78;5041564;28;20436;-83
2021/11/30 03:10:17;;;;;;;0.13;0.13;;;;;;;1.01;100.00;99398.75;5041621;28;20060;-83
2021/11/30 03:12:52;;;;;;;0.20;0.20;;;;;;;1.01;100.00;99390.69;5043281;28;20057;-84
2021/11/30 03:15:26;;;;;;;0.20;0.20;;;;;;;0.95;100.00;99378.28;5042593;28;20041;-84
2021/11/30 03:17:55;;;;;;;0.20;0.20;;;;;;;0.97;100.00;99373.50;5047513;28;20052;-83
2021/11/30 03:20:29;;;;;;;0.30;0.30;;;;;;;1.11;100.00;99368.59;5039692;28;20053;-84
2021/11/30 03:22:58;;;;;;;0.20;0.20;;;;;;;1.08;100.00;99359.16;5048416;28;20060;-84
2021/11/30 03:25:31;;;;;;;0.20;0.20;;;;;;;1.03;100.00;99351.06;5042294;28;20049;-84
2021/11/30 03:28:00;;;;;;;0.13;0.13;;;;;;;1.00;100.00;99338.19;5049164;28;20049;-83
2021/11/30 03:30:35;;;;;;;0.10;0.10;;;;;;;1.01;100.00;99319.16;5046793;28;20041;-85
2021/11/30 03:35:55;;;;;;;0.20;0.20;;;;;;;1.07;100.00;99303.16;5042529;28;20397;-84
2021/11/30 03:38:29;;;;;;;0.20;0.20;;;;;;;1.15;100.00;99292.00;5043121;28;20072;-85
2021/11/30 03:40:58;;;;;;;0.20;0.20;;;;;;;1.13;100.00;99278.03;5042739;28;20061;-83
2021/11/30 03:43:31;;;;;;;0.20;0.20;;;;;;;1.15;100.00;99268.69;5045532;28;20377;-84
2021/11/30 03:46:04;;;;;;;0.20;0.20;;;;;;;1.18;100.00;99253.97;5041466;28;20041;-84
2021/11/30 03:48:33;;;;;;;0.20;0.20;;;;;;;1.15;100.00;99251.81;5047371;28;20059;-84
2021/11/30 03:51:06;;;;;;;0.20;0.20;;;;;;;1.11;100.00;99240.78;5043578;28;20048;-84
2021/11/30 03:53:35;;;;;;;0.20;0.20;;;;;;;1.13;100.00;99213.72;5037436;28;20053;-84
2021/11/30 03:56:09;;;;;;;0.20;0.20;;;;;;;1.18;100.00;99208.41;5042833;28;20489;-84
2021/11/30 03:58:42;;;;;;;0.20;0.20;;;;;;;1.06;100.00;99187.13;5047498;28;20052;-85
2021/11/30 04:01:15;;;;;;;0.20;0.20;;;;;;;1.14;100.00;99185.88;5048384;28;20052;-84
2021/11/30 04:03:49;;;;;;;0.20;0.20;;;;;;;0.99;100.00;99167.78;5041908;28;20049;-83
2021/11/30 04:06:17;;;;;;;0.28;0.28;;;;;;;1.04;100.00;99161.66;5051178;28;20482;-84
2021/11/30 04:08:52;;;;;;;0.20;0.20;;;;;;;1.08;100.00;99166.25;5048340;28;20041;-85
2021/11/30 04:11:25;;;;;;;0.20;0.20;;;;;;;1.11;100.00;99148.88;5051561;28;20049;-84
2021/11/30 04:13:53;;;;;;;0.20;0.20;;;;;;;1.17;100.00;99135.28;5038231;28;20057;-86
2021/11/30 04:16:22;;;;;;;0.20;0.20;;;;;;;1.04;100.00;99121.47;5047748;28;20053;-84
2021/11/30 04:18:55;;;;;;;0.20;0.20;;;;;;;1.11;100.00;99127.44;5047769;28;20045;-85
2021/11/30 04:21:23;;;;;;;0.10;0.10;;;;;;;1.12;100.00;99121.81;5051355;28;20044;-84
2021/11/30 04:23:53;;;;;;;0.20;0.20;;;;;;;1.12;100.00;99091.53;5041143;28;20057;-84
2021/11/30 04:26:27;;;;;;;0.22;0.22;;;;;;;1.00;100.00;99079.13;5043341;28;20040;-85
2021/11/30 04:29:00;;;;;;;0.20;0.20;;;;;;;1.02;100.00;99079.69;5046752;28;20054;-84
2021/11/30 04:31:30;;;;;;;0.20;0.20;;;;;;;1.07;100.00;99083.47;5047813;28;20054;-84
2021/11/30 04:33:59;;;;;;;0.20;0.20;;;;;;;0.89;100.00;99031.91;5042478;28;20049;-84
2021/11/30 04:36:32;;;;;;;0.20;0.20;;;;;;;1.12;100.00;99073.59;5049951;28;20063;-84
2021/11/30 04:39:07;;;;;;;0.20;0.20;;;;;;;0.88;100.00;99011.53;5044999;28;20045;-84
2021/11/30 04:41:43;;;;;;;0.30;0.30;;;;;;;1.11;100.00;99047.84;5045678;28;20049;-84
2021/11/30 04:44:16;;;;;;;0.30;0.30;;;;;;;1.14;100.00;99035.81;5036284;28;20049;-85
2021/11/30 04:46:52;;;;;;;0.20;0.20;;;;;;;1.06;100.00;99028.25;5052064;28;20128;-84
2021/11/30 04:49:36;;;;;;;0.30;0.30;;;;;;;1.13;100.00;99026.16;5041547;28;20045;-85
2021/11/30 04:52:08;;;;;;;0.20;0.20;;;;;;;1.16;100.00;99007.72;5042090;28;20052;-84
2021/11/30 04:54:42;;;;;;;0.20;0.20;;;;;;;1.10;100.00;98991.84;5054828;28;20049;-84
2021/11/30 04:57:16;;;;;;;0.20;0.20;;;;;;;1.11;100.00;98974.72;5040878;28;20060;-84
2021/11/30 04:59:44;;;;;;;0.20;0.20;;;;;;;1.16;100.00;98990.81;5042840;28;20045;-84
2021/11/30 05:02:14;;;;;;;0.20;0.20;;;;;;;1.23;100.00;98987.91;5042288;28;20064;-85
2021/11/30 05:04:48;;;;;;;0.20;0.20;;;;;;;1.25;100.00;98969.69;5041244;28;20046;-84
2021/11/30 05:07:21;;;;;;;0.30;0.30;;;;;;;1.10;100.00;98960.50;5047886;28;20048;-84
2021/11/30 05:09:50;;;;;;;0.20;0.20;;;;;;;1.16;100.00;98964.84;5041004;28;20128;-84
2021/11/30 05:12:23;;;;;;;0.20;0.20;;;;;;;1.14;100.00;98955.44;5043725;28;20048;-84
2021/11/30 05:14:57;;;;;;;0.20;0.20;;;;;;;1.11;100.00;98927.28;5042113;28;20068;-83
2021/11/30 05:17:30;;;;;;;0.20;0.20;;;;;;;1.16;100.00;98923.81;5040090;28;20053;-85
2021/11/30 05:20:06;;;;;;;0.20;0.20;;;;;;;1.22;100.00;98932.72;5042520;28;20041;-85
2021/11/30 05:22:39;;;;;;;0.20;0.20;;;;;;;1.28;100.00;98943.16;5047942;28;20052;-84
2021/11/30 05:25:09;;;;;;;0.20;0.20;;;;;;;1.31;100.00;98949.88;5044745;28;20045;-84
2021/11/30 05:27:41;;;;;;;0.20;0.20;;;;;;;1.07;100.00;98888.69;5057741;28;20072;-85
2021/11/30 05:30:19;;;;;;;0.20;0.20;;;;;;;1.24;100.00;98899.19;5052771;28;20049;-84
2021/11/30 05:32:52;;;;;;;0.30;0.30;;;;;;;1.32;100.00;98908.63;5046934;28;20049;-84
2021/11/30 05:35:25;;;;;;;0.20;0.20;;;;;;;1.33;100.00;98908.34;5048334;28;20041;-84
2021/11/30 05:37:53;;;;;;;0.20;0.20;;;;;;;1.36;100.00;98897.09;5044762;28;20057;-85
2021/11/30 05:40:28;;;;;;;0.20;0.20;;;;;;;1.39;100.00;98903.81;5055471;28;20052;-84
2021/11/30 05:42:56;;;;;;;0.20;0.20;;;;;;;1.36;100.00;98893.63;5037961;28;20045;-84
2021/11/30 05:45:25;;;;;;;0.20;0.20;;;;;;;1.42;100.00;98892.56;5044989;28;20064;-84
2021/11/30 05:47:58;;;;;;;0.20;0.20;;;;;;;1.39;100.00;98862.81;5051003;28;20045;-85
2021/11/30 05:50:26;;;;;;;0.10;0.10;;;;;;;1.38;100.00;98880.75;5040881;28;20060;-84
2021/11/30 05:52:55;;;;;;;0.10;0.10;;;;;;;1.46;100.00;98877.56;5041762;28;20462;-83
2021/11/30 05:55:23;;;;;;;0.20;0.20;;;;;;;1.43;100.00;98862.03;5040418;28;20049;-84
2021/11/30 05:57:53;;;;;;;0.10;0.10;;;;;;;1.32;100.00;98855.81;5039261;28;20057;-84
2021/11/30 06:00:22;;;;;;;0.20;0.20;;;;;;;1.42;100.00;98852.34;5045106;28;20057;-84
2021/11/30 06:03:00;;;;;;;0.20;0.20;;;;;;;1.55;100.00;98858.28;5048510;28;20046;-87
2021/11/30 06:05:34;;;;;;;0.20;0.20;;;;;;;1.50;100.00;98851.84;5058386;28;20052;-84
2021/11/30 06:08:03;;;;;;;0.20;0.20;;;;;;;1.53;100.00;98854.00;5045505;28;20694;-83
2021/11/30 06:10:37;;;;;;;0.20;0.20;;;;;;;1.59;100.00;98851.31;5048638;28;20049;-83
2021/11/30 06:13:11;;;;;;;0.20;0.20;;;;;;;1.57;100.00;98848.91;5055920;28;20068;-84
2021/11/30 06:15:44;;;;;;;0.20;0.20;;;;;;;1.60;100.00;98847.56;5047200;28;20041;-83
2021/11/30 06:18:17;;;;;;;0.20;0.20;;;;;;;1.75;100.00;98849.47;5046585;28;20060;-83
2021/11/30 06:20:48;;;;;;;0.20;0.20;;;;;;;1.68;100.00;98844.38;5043459;28;20057;-85
2021/11/30 06:23:17;;;;;;;0.17;0.17;;;;;;;1.67;100.00;98835.53;5050528;28;20049;-84
2021/11/30 06:25:45;;;;;;;0.10;0.10;;;;;;;1.66;100.00;98827.75;5044465;28;20052;-85
2021/11/30 06:28:19;;;;;;;0.20;0.20;;;;;;;1.72;100.00;98837.41;5045323;28;20053;-84
2021/11/30 06:30:52;;;;;;;0.20;0.20;;;;;;;1.68;100.00;98814.88;5046329;28;20386;-84
2021/11/30 06:33:26;;;;;;;0.20;0.20;;;;;;;1.80;100.00;98839.56;5040806;28;20053;-84
2021/11/30 06:36:00;;;;;;;0.20;0.20;;;;;;;1.83;100.00;98843.59;5040491;28;20041;-83
2021/11/30 06:38:33;;;;;;;0.20;0.20;;;;;;;1.94;100.00;98847.09;5048924;28;20051;-84
2021/11/30 06:41:07;;;;;;;0.20;0.20;;;;;;;1.93;100.00;98815.97;5038922;28;20060;-85
2021/11/30 06:43:41;;;;;;;0.20;0.20;;;;;;;1.91;100.00;98818.91;5048227;28;20424;-85
2021/11/30 06:46:15;;;;;;;0.20;0.20;;;;;;;2.13;100.00;98831.25;5045817;28;20057;-84
2021/11/30 06:48:48;;;;;;;0.20;0.20;;;;;;;2.12;100.00;98821.59;5041234;28;20391;-84
2021/11/30 06:51:22;;;;;;;0.20;0.20;;;;;;;2.26;100.00;98819.16;5037977;28;20397;-84
2021/11/30 06:53:55;;;;;;;0.20;0.20;;;;;;;2.30;100.00;98820.22;5042982;28;20064;-84
2021/11/30 06:56:28;;;;;;;0.20;0.20;;;;;;;2.34;100.00;98837.41;5039741;28;20710;-83
2021/11/30 06:59:05;;;;;;;0.20;0.20;;;;;;;2.43;100.00;98821.53;5047461;28;20061;-84
2021/11/30 07:01:38;;;;;;;0.20;0.20;;;;;;;2.39;100.00;98813.25;5044565;28;20532;-84
2021/11/30 07:04:07;;;;;;;0.20;0.20;;;;;;;2.47;100.00;98801.94;5061424;28;20083;-86
2021/11/30 07:06:43;;;;;;;0.20;0.20;;;;;;;2.51;100.00;98812.94;5040952;28;20044;-84
2021/11/30 07:09:19;;;;;;;0.10;0.10;;;;;;;2.52;100.00;98827.97;5044818;28;20517;-84
2021/11/30 07:12:02;;;;;;;0.10;0.10;;;;;;;2.46;100.00;98824.50;5050142;28;20053;-86
2021/11/30 07:14:36;;;;;;;0.20;0.20;;;;;;;2.61;100.00;98815.59;5044543;28;20037;-85
2021/11/30 07:17:09;;;;;;;0.20;0.20;;;;;;;2.72;100.00;98819.03;5037827;28;20057;-84
2021/11/30 07:19:43;;;;;;;0.20;0.20;;;;;;;2.69;100.00;98804.31;5040083;28;20045;-85
2021/11/30 07:22:16;;;;;;;0.20;0.20;;;;;;;2.82;100.00;98819.03;5037363;28;20053;-83
2021/11/30 07:24:45;;;;;;;0.20;0.20;;;;;;;2.95;100.00;98814.16;5039547;28;20529;-85
2021/11/30 07:27:18;;;;;;;0.20;0.20;;;;;;;2.98;100.00;98816.28;5038989;28;20033;-84
2021/11/30 07:29:52;;;;;;;0.20;0.20;;;;;;;3.03;100.00;98814.38;5037210;28;20055;-83
2021/11/30 07:32:26;;;;;;;0.28;0.28;;;;;;;3.04;100.00;98815.97;5037237;28;20036;-85
2021/11/30 07:34:59;;;;;;;0.17;0.17;;;;;;;3.12;100.00;98824.53;5045304;28;20371;-87
2021/11/30 07:37:27;;;;;;;0.20;0.20;;;;;;;3.19;100.00;98815.09;5040911;28;20044;-85
2021/11/30 07:39:56;;;;;;;0.20;0.20;;;;;;;3.20;100.00;98814.03;5038536;28;20049;-83
2021/11/30 07:42:26;;;;;;;0.20;0.20;;;;;;;3.30;100.00;98821.25;5035951;28;20045;-85
2021/11/30 07:45:01;;;;;;;0.20;0.20;;;;;;;3.36;100.00;98803.19;5038378;28;20033;-83
2021/11/30 07:47:34;;;;;;;0.20;0.20;;;;;;;3.38;100.00;98811.75;5035198;28;20493;-84
2021/11/30 07:50:02;;;;;;;0.10;0.10;;;;;;;3.38;100.00;98809.06;5033715;28;20073;-83
2021/11/30 07:52:39;;;;;;;0.20;0.20;;;;;;;3.40;100.00;98794.28;5050039;28;20064;-83
2021/11/30 07:55:15;;;;;;;0.20;0.20;;;;;;;3.42;100.00;98783.25;5051541;28;20041;-82
2021/11/30 07:57:48;;;;;;;0.20;0.20;;;;;;;3.47;100.00;98790.50;5039289;28;20048;-83
2021/11/30 08:00:23;;;;;;;0.20;0.20;;;;;;;3.54;100.00;98799.03;5032278;28;20060;-83
2021/11/30 08:02:56;;;;;;;0.20;0.20;;;;;;;3.55;100.00;98781.81;5052782;28;20048;-82
2021/11/30 08:05:31;;;;;;;0.25;0.25;;;;;;;3.59;100.00;98799.00;5051682;28;20064;-82
2021/11/30 08:08:04;;;;;;;0.20;0.20;;;;;;;3.54;100.00;98783.69;5049393;28;20127;-82
2021/11/30 08:10:38;;;;;;;0.13;0.13;;;;;;;3.58;100.00;98790.13;5048936;28;20692;-81
2021/11/30 08:13:11;;;;;;;0.20;0.20;;;;;;;3.75;100.00;98786.22;5040981;28;20056;-81
2021/11/30 08:15:46;;;;;;;0.20;0.20;;;;;;;3.67;100.00;98787.63;5044421;28;20057;-83
2021/11/30 08:18:19;;;;;;;0.22;0.22;;;;;;;3.77;100.00;98792.16;5041854;28;21398;-82
2021/11/30 08:20:48;;;;;;;0.20;0.20;;;;;;;3.77;100.00;98794.03;5046230;28;20060;-81
2021/11/30 08:23:24;;;;;;;0.20;0.20;;;;;;;3.80;100.00;98796.97;5041089;28;20436;-83
2021/11/30 08:25:57;;;;;;;0.20;0.20;;;;;;;3.82;100.00;98792.09;5042285;28;20056;-82
2021/11/30 08:28:30;;;;;;;0.20;0.20;;;;;;;3.78;100.00;98796.44;5037772;28;20052;-80
2021/11/30 08:31:05;;;;;;;0.20;0.20;;;;;;;3.96;100.00;98804.91;5037618;28;21519;-83
2021/11/30 08:33:33;;;;;;;0.30;0.30;;;;;;;3.98;100.00;98797.34;5039249;28;20056;-82
2021/11/30 08:36:07;;;;;;;0.20;0.20;;;;;;;3.97;100.00;98796.56;5053740;28;20064;-83
2021/11/30 08:38:36;;;;;;;0.20;0.20;;;;;;;3.99;100.00;98797.09;5042735;28;20052;-81
2021/11/30 08:41:10;;;;;;;0.20;0.20;;;;;;;4.03;100.00;98800.00;5038641;28;20071;-81
2021/11/30 08:43:43;;;;;;;0.10;0.10;;;;;;;3.98;100.00;98795.47;5044004;28;20049;-82
2021/11/30 08:46:18;;;;;;;0.30;0.30;;;;;;;4.05;100.00;98795.94;5037279;28;20056;-81
2021/11/30 08:48:51;;;;;;;0.30;0.30;;;;;;;4.04;100.00;98801.59;5042560;28;20060;-82
2021/11/30 08:51:19;;;;;;;0.30;0.30;;;;;;;4.00;100.00;98808.66;5046395;28;20072;-82
2021/11/30 08:53:52;;;;;;;0.20;0.20;;;;;;;4.04;100.00;98810.47;5050141;28;20045;-80
2021/11/30 08:56:26;;;;;;;0.28;0.28;;;;;;;4.08;100.00;98811.53;5038515;28;20060;-81
2021/11/30 08:58:54;;;;;;;0.20;0.20;;;;;;;4.08;100.00;98824.19;5037204;28;21565;-82
2021/11/30 09:01:29;;;;;;;0.20;0.20;;;;;;;4.08;100.00;98832.25;5037725;28;20061;-82
2021/11/30 09:03:57;;;;;;;0.20;0.20;;;;;;;4.06;100.00;98816.41;5042642;28;20068;-81
2021/11/30 09:06:31;;;;;;;0.20;0.20;;;;;;;4.20;100.00;98835.38;5043523;28;20056;-81
2021/11/30 09:08:59;;;;;;;0.20;0.20;;;;;;;4.12;100.00;98844.06;5045477;28;20048;-83
2021/11/30 09:11:33;;;;;;;0.20;0.20;;;;;;;4.08;100.00;98840.34;5047362;28;20059;-82
2021/11/30 09:14:07;;;;;;;0.20;0.20;;;;;;;4.08;100.00;98835.75;5046640;28;20060;-84
2021/11/30 09:16:42;;;;;;;0.20;0.20;;;;;;;4.11;100.00;98837.06;5047932;28;20048;-81
2021/11/30 09:19:10;;;;;;;0.20;0.20;;;;;;;4.07;100.00;98833.34;5050137;28;20393;-82
2021/11/30 09:21:44;;;;;;;0.20;0.20;;;;;;;4.11;100.00;98830.91;5045743;28;20060;-82
2021/11/30 09:24:12;;;;;;;0.30;0.30;;;;;;;4.14;100.00;98827.63;5046183;28;20060;-80
2021/11/30 09:26:46;;;;;;;0.20;0.20;;;;;;;4.22;100.00;98835.91;5040192;28;20579;-82
2021/11/30 09:29:15;;;;;;;0.20;0.20;;;;;;;4.12;100.00;98821.75;5039241;28;20055;-81
2021/11/30 09:31:49;;;;;;;0.20;0.20;;;;;;;4.13;100.00;98832.22;5051993;28;20440;-81
2021/11/30 09:34:17;;;;;;;0.20;0.20;;;;;;;4.21;100.00;98822.72;5059573;28;20971;-82
2021/11/30 09:36:53;;;;;;;0.30;0.30;;;;;;;4.14;100.00;98823.03;5049635;28;20507;-83
2021/11/30 09:39:26;;;;;;;0.20;0.20;;;;;;;4.17;100.00;98837.84;5045847;28;20049;-81
2021/11/30 09:41:59;;;;;;;0.20;0.20;;;;;;;4.16;100.00;98833.56;5045153;28;20806;-80
2021/11/30 09:44:28;;;;;;;0.20;0.20;;;;;;;4.14;100.00;98836.50;5041782;28;20059;-81
2021/11/30 09:47:03;;;;;;;0.20;0.20;;;;;;;4.14;100.00;98836.50;5042914;28;20052;-83
2021/11/30 09:49:37;;;;;;;0.20;0.20;;;;;;;4.12;100.00;98837.91;5046396;28;20053;-82
2021/11/30 09:52:10;;;;;;;0.20;0.20;;;;;;;4.11;100.00;98845.16;5037022;28;20047;-82
2021/11/30 09:54:44;;;;;;;0.30;0.30;;;;;;;4.23;100.00;98853.66;5042439;28;20107;-81
2021/11/30 09:57:17;;;;;;;0.20;0.20;;;;;;;4.25;100.00;98839.91;5046400;28;20075;-80
2021/11/30 09:59:48;;;;;;;0.25;0.25;;;;;;;4.26;100.00;98845.00;5048022;28;20059;-80
2021/11/30 10:02:18;;;;;;;0.30;0.30;;;;;;;4.29;100.00;98840.16;5043260;28;20056;-81
2021/11/30 10:04:47;;;;;;;0.30;0.30;;;;;;;4.34;100.00;98845.50;5040519;28;20513;-81
2021/11/30 10:07:15;;;;;;;0.20;0.20;;;;;;;4.35;100.00;98842.53;5044535;28;20057;-82
2021/11/30 10:09:48;;;;;;;0.10;0.10;;;;;;;4.42;100.00;98847.59;5038480;28;20052;-82
2021/11/30 10:12:20;;;;;;;0.30;0.30;;;;;;;4.40;100.00;98831.69;5039810;28;20060;-82
2021/11/30 10:14:48;;;;;;;0.30;0.30;;;;;;;4.40;100.00;98841.66;5044615;28;20052;-84
2021/11/30 10:17:26;;;;;;;0.30;0.30;;;;;;;4.31;100.00;98816.44;5041245;28;20104;-81
2021/11/30 10:20:05;;;;;;;0.20;0.20;;;;;;;4.32;100.00;98832.31;5044980;28;20051;-82
2021/11/30 10:22:48;;;;;;;0.20;0.20;;;;;;;4.31;100.00;98819.94;5040032;28;20059;-81
2021/11/30 10:25:24;;;;;;;0.20;0.20;;;;;;;4.41;100.00;98845.97;5039789;28;20056;-83
2021/11/30 10:28:00;;;;;;;0.20;0.20;;;;;;;4.34;100.00;98848.19;5046298;28;20052;-81
2021/11/30 10:30:30;;;;;;;0.20;0.20;;;;;;;4.23;100.00;98852.88;5041763;28;20052;-82
2021/11/30 10:33:10;;;;;;;0.20;0.20;;;;;;;4.20;100.00;98856.13;5040324;28;20817;-81
2021/11/30 10:35:45;;;;;;;0.20;0.20;;;;;;;4.11;100.00;98841.66;5041393;28;20060;-81
2021/11/30 10:38:14;;;;;;;0.25;0.25;;;;;;;4.13;100.00;98845.69;5042203;28;20743;-82
2021/11/30 10:40:42;;;;;;;0.20;0.20;;;;;;;4.13;100.00;98850.25;5045497;28;20059;-83
2021/11/30 10:43:11;;;;;;;0.20;0.20;;;;;;;4.14;100.00;98862.63;5035367;28;20044;-82
2021/11/30 10:45:43;;;;;;;0.20;0.20;;;;;;;4.16;100.00;98852.41;5041082;28;21386;-80
2021/11/30 10:48:19;;;;;;;0.20;0.20;;;;;;;4.21;100.00;98863.09;5046940;28;20064;-82
2021/11/30 10:50:56;;;;;;;0.30;0.30;;;;;;;4.13;100.00;98861.03;5040497;28;20595;-82
2021/11/30 10:53:27;;;;;;;0.20;0.20;;;;;;;4.16;100.00;98857.78;5043353;28;20059;-82
2021/11/30 10:55:59;;;;;;;0.10;0.10;;;;;;;4.16;100.00;98853.19;5037197;28;21283;-80
2021/11/30 10:58:34;;;;;;;0.30;0.30;;;;;;;4.11;100.00;98829.00;5038703;28;20382;-82
2021/11/30 11:01:07;;;;;;;0.20;0.20;;;;;;;4.17;100.00;98849.44;5039379;28;20052;-82
2021/11/30 11:03:42;;;;;;;0.30;0.30;;;;;;;4.32;100.00;98872.69;5036665;28;20693;-83
2021/11/30 11:09:03;;;;;;;0.30;0.30;;;;;;;4.26;100.00;98879.22;5043082;28;20056;-83
2021/11/30 11:11:34;;;;;;;0.30;0.30;;;;;;;4.27;100.00;98851.22;5044176;28;20056;-84
2021/11/30 11:14:05;;;;;;;0.20;0.20;;;;;;;4.31;100.00;98871.13;5049515;28;20060;-81
2021/11/30 11:16:38;;;;;;;0.20;0.20;;;;;;;4.21;100.00;98860.41;5039476;28;20048;-81
2021/11/30 11:19:13;;;;;;;0.20;0.20;;;;;;;4.29;100.00;98873.28;5040079;28;20055;-84
2021/11/30 11:21:42;;;;;;;0.20;0.20;;;;;;;4.18;100.00;98872.53;5044081;28;20044;-81
2021/11/30 11:24:20;;;;;;;0.30;0.30;;;;;;;4.25;100.00;98870.34;5040268;28;20459;-84
2021/11/30 11:26:50;;;;;;;0.20;0.20;;;;;;;4.23;100.00;98869.03;5046234;28;20127;-82
2021/11/30 11:29:21;;;;;;;0.20;0.20;;;;;;;4.21;100.00;98873.88;5046617;28;21732;-83
2021/11/30 11:31:52;;;;;;;0.20;0.20;;;;;;;4.46;100.00;98885.50;5044002;28;20053;-81
2021/11/30 11:34:24;;;;;;;0.20;0.20;;;;;;;4.49;100.00;98875.00;5039323;28;20064;-84
2021/11/30 11:36:59;;;;;;;0.20;0.20;;;;;;;4.51;100.00;98872.81;5043506;28;20063;-85
2021/11/30 11:39:33;;;;;;;0.20;0.20;;;;;;;4.48;100.00;98868.00;5037647;28;20048;-82
2021/11/30 11:42:09;;;;;;;0.20;0.20;;;;;;;4.53;100.00;98881.41;5042276;28;20048;-84
2021/11/30 11:44:38;;;;;;;0.30;0.30;;;;;;;4.35;100.00;98852.47;5047096;28;20060;-83
2021/11/30 11:47:09;;;;;;;0.20;0.20;;;;;;;4.37;100.00;98869.97;5046149;28;20048;-83
2021/11/30 11:49:40;;;;;;;0.20;0.20;;;;;;;4.43;100.00;98871.53;5044473;28;20507;-83
2021/11/30 11:52:23;;;;;;;0.20;0.20;;;;;;;4.58;100.00;98869.78;5040636;28;20053;-83
2021/11/30 11:55:01;;;;;;;0.30;0.30;;;;;;;4.66;100.00;98869.16;5043602;28;20055;-80
2021/11/30 11:57:36;;;;;;;0.20;0.20;;;;;;;4.66;100.00;98874.56;5043771;28;20063;-84
2021/11/30 12:00:18;;;;;;;0.20;0.20;;;;;;;4.75;100.00;98870.16;5017050;27;20052;-82
2021/11/30 12:02:53;;;;;;;0.20;0.20;;;;;;;4.85;100.00;98866.53;5056457;28;20072;-86
2021/11/30 12:05:49;;;;;;;0.20;0.20;;;;;;;4.86;100.00;98860.06;5042599;28;20068;-82
2021/11/30 12:08:19;;;;;;;0.20;0.20;;;;;;;4.72;100.00;98868.03;5050711;28;20424;-82